sensor_id;sensor_type;location;lat;lon;timestamp;temperature;humidity
14182;DHT22;7171;50.936;6.764;2023-07-13T00:01:40;19.40;79.50
14182;DHT22;7171;50.936;6.764;2023-07-13T00:04:06;19.30;79.60
14182;DHT22;7171;50.936;6.764;2023-07-13T00:06:33;19.30;79.80
14182;DHT22;7171;50.936;6.764;2023-07-13T00:09:00;19.30;80.50
14182;DHT22;7171;50.936;6.764;2023-07-13T00:11:28;19.20;80.00
14182;DHT22;7171;50.936;6.764;2023-07-13T00:13:55;19.20;80.10
14182;DHT22;7171;50.936;6.764;2023-07-13T00:16:23;19.20;80.20
14182;DHT22;7171;50.936;6.764;2023-07-13T00:18:50;19.20;80.30
14182;DHT22;7171;50.936;6.764;2023-07-13T00:21:18;19.10;80.40
14182;DHT22;7171;50.936;6.764;2023-07-13T00:23:44;19.10;80.40
14182;DHT22;7171;50.936;6.764;2023-07-13T00:26:12;19.10;80.30
14182;DHT22;7171;50.936;6.764;2023-07-13T00:28:39;19.10;80.30
14182;DHT22;7171;50.936;6.764;2023-07-13T00:31:07;19.00;80.50
14182;DHT22;7171;50.936;6.764;2023-07-13T00:33:36;19.00;80.50
14182;DHT22;7171;50.936;6.764;2023-07-13T00:36:03;19.00;80.70
14182;DHT22;7171;50.936;6.764;2023-07-13T00:38:30;19.00;80.70
14182;DHT22;7171;50.936;6.764;2023-07-13T00:40:57;18.90;80.70
14182;DHT22;7171;50.936;6.764;2023-07-13T00:43:26;18.90;80.80
14182;DHT22;7171;50.936;6.764;2023-07-13T00:46:13;18.90;80.80
14182;DHT22;7171;50.936;6.764;2023-07-13T00:48:43;18.80;80.90
14182;DHT22;7171;50.936;6.764;2023-07-13T00:51:11;18.80;81.10
14182;DHT22;7171;50.936;6.764;2023-07-13T00:53:38;18.80;81.30
14182;DHT22;7171;50.936;6.764;2023-07-13T00:56:06;18.80;81.30
14182;DHT22;7171;50.936;6.764;2023-07-13T00:58:33;18.70;81.00
14182;DHT22;7171;50.936;6.764;2023-07-13T01:01:00;18.70;81.30
14182;DHT22;7171;50.936;6.764;2023-07-13T01:03:27;18.70;81.40
14182;DHT22;7171;50.936;6.764;2023-07-13T01:05:55;18.70;81.60
14182;DHT22;7171;50.936;6.764;2023-07-13T01:08:23;18.60;81.60
14182;DHT22;7171;50.936;6.764;2023-07-13T01:10:53;18.60;81.80
14182;DHT22;7171;50.936;6.764;2023-07-13T01:13:21;18.50;81.70
14182;DHT22;7171;50.936;6.764;2023-07-13T01:15:50;18.50;81.70
14182;DHT22;7171;50.936;6.764;2023-07-13T01:18:19;18.40;81.70
14182;DHT22;7171;50.936;6.764;2023-07-13T01:20:51;18.40;81.80
14182;DHT22;7171;50.936;6.764;2023-07-13T01:23:18;18.40;82.20
14182;DHT22;7171;50.936;6.764;2023-07-13T01:25:45;18.40;82.10
14182;DHT22;7171;50.936;6.764;2023-07-13T01:28:12;18.40;82.30
14182;DHT22;7171;50.936;6.764;2023-07-13T01:30:39;18.30;82.40
14182;DHT22;7171;50.936;6.764;2023-07-13T01:33:06;18.30;82.40
14182;DHT22;7171;50.936;6.764;2023-07-13T01:35:35;18.30;82.20
14182;DHT22;7171;50.936;6.764;2023-07-13T01:38:04;18.30;82.40
14182;DHT22;7171;50.936;6.764;2023-07-13T01:40:32;18.20;82.40
14182;DHT22;7171;50.936;6.764;2023-07-13T01:42:58;18.20;82.60
14182;DHT22;7171;50.936;6.764;2023-07-13T01:45:25;18.20;82.70
14182;DHT22;7171;50.936;6.764;2023-07-13T01:47:52;18.10;82.00
14182;DHT22;7171;50.936;6.764;2023-07-13T01:50:19;18.10;82.70
14182;DHT22;7171;50.936;6.764;2023-07-13T01:52:46;17.20;82.20
14182;DHT22;7171;50.936;6.764;2023-07-13T01:55:14;18.10;83.00
14182;DHT22;7171;50.936;6.764;2023-07-13T01:57:40;18.10;83.00
14182;DHT22;7171;50.936;6.764;2023-07-13T02:00:10;18.10;83.10
14182;DHT22;7171;50.936;6.764;2023-07-13T02:02:37;17.50;82.90
14182;DHT22;7171;50.936;6.764;2023-07-13T02:05:04;18.00;83.30
14182;DHT22;7171;50.936;6.764;2023-07-13T02:07:31;18.00;83.30
14182;DHT22;7171;50.936;6.764;2023-07-13T02:09:57;17.90;83.40
14182;DHT22;7171;50.936;6.764;2023-07-13T02:12:25;17.90;83.50
14182;DHT22;7171;50.936;6.764;2023-07-13T02:14:52;17.90;83.60
14182;DHT22;7171;50.936;6.764;2023-07-13T02:17:19;17.80;83.40
14182;DHT22;7171;50.936;6.764;2023-07-13T02:19:45;17.80;83.50
14182;DHT22;7171;50.936;6.764;2023-07-13T02:22:12;17.70;83.00
14182;DHT22;7171;50.936;6.764;2023-07-13T02:24:39;17.70;83.70
14182;DHT22;7171;50.936;6.764;2023-07-13T02:27:06;17.60;83.50
14182;DHT22;7171;50.936;6.764;2023-07-13T02:29:34;17.60;83.60
14182;DHT22;7171;50.936;6.764;2023-07-13T02:32:01;17.60;83.90
14182;DHT22;7171;50.936;6.764;2023-07-13T02:34:28;17.50;83.80
14182;DHT22;7171;50.936;6.764;2023-07-13T02:36:55;17.50;83.90
14182;DHT22;7171;50.936;6.764;2023-07-13T02:39:21;17.50;84.00
14182;DHT22;7171;50.936;6.764;2023-07-13T02:41:48;17.40;84.00
14182;DHT22;7171;50.936;6.764;2023-07-13T02:44:15;17.40;84.20
14182;DHT22;7171;50.936;6.764;2023-07-13T02:46:43;17.40;84.30
14182;DHT22;7171;50.936;6.764;2023-07-13T02:49:10;17.30;84.30
14182;DHT22;7171;50.936;6.764;2023-07-13T02:51:37;17.30;84.40
14182;DHT22;7171;50.936;6.764;2023-07-13T02:54:04;17.20;84.50
14182;DHT22;7171;50.936;6.764;2023-07-13T02:56:31;17.20;84.40
14182;DHT22;7171;50.936;6.764;2023-07-13T02:58:58;17.20;84.70
14182;DHT22;7171;50.936;6.764;2023-07-13T03:01:25;17.10;84.70
14182;DHT22;7171;50.936;6.764;2023-07-13T03:03:53;17.30;84.90
14182;DHT22;7171;50.936;6.764;2023-07-13T03:06:20;17.10;84.90
14182;DHT22;7171;50.936;6.764;2023-07-13T03:08:48;17.20;85.10
14182;DHT22;7171;50.936;6.764;2023-07-13T03:11:18;17.20;85.20
14182;DHT22;7171;50.936;6.764;2023-07-13T03:13:45;17.10;85.10
14182;DHT22;7171;50.936;6.764;2023-07-13T03:16:13;17.10;85.10
14182;DHT22;7171;50.936;6.764;2023-07-13T03:18:41;17.10;85.20
14182;DHT22;7171;50.936;6.764;2023-07-13T03:21:09;17.00;85.10
14182;DHT22;7171;50.936;6.764;2023-07-13T03:23:36;17.10;85.30
14182;DHT22;7171;50.936;6.764;2023-07-13T03:26:04;17.00;84.80
14182;DHT22;7171;50.936;6.764;2023-07-13T03:28:31;17.10;85.20
14182;DHT22;7171;50.936;6.764;2023-07-13T03:31:03;17.00;85.00
14182;DHT22;7171;50.936;6.764;2023-07-13T03:33:30;16.90;85.00
14182;DHT22;7171;50.936;6.764;2023-07-13T03:35:57;17.00;85.30
14182;DHT22;7171;50.936;6.764;2023-07-13T03:38:25;16.90;85.10
14182;DHT22;7171;50.936;6.764;2023-07-13T03:40:52;16.90;85.50
14182;DHT22;7171;50.936;6.764;2023-07-13T03:43:19;16.90;85.60
14182;DHT22;7171;50.936;6.764;2023-07-13T03:45:46;16.90;85.60
14182;DHT22;7171;50.936;6.764;2023-07-13T03:48:12;16.80;85.70
14182;DHT22;7171;50.936;6.764;2023-07-13T03:50:39;16.90;85.80
14182;DHT22;7171;50.936;6.764;2023-07-13T03:53:06;16.80;85.70
14182;DHT22;7171;50.936;6.764;2023-07-13T03:55:34;16.90;85.90
14182;DHT22;7171;50.936;6.764;2023-07-13T03:58:25;16.90;86.20
14182;DHT22;7171;50.936;6.764;2023-07-13T04:00:53;16.90;86.10
14182;DHT22;7171;50.936;6.764;2023-07-13T04:03:19;16.90;86.40
14182;DHT22;7171;50.936;6.764;2023-07-13T04:05:46;17.00;86.50
14182;DHT22;7171;50.936;6.764;2023-07-13T04:08:13;17.00;86.30
14182;DHT22;7171;50.936;6.764;2023-07-13T04:10:40;16.90;87.00
14182;DHT22;7171;50.936;6.764;2023-07-13T04:13:07;16.90;86.50
14182;DHT22;7171;50.936;6.764;2023-07-13T04:15:34;16.90;86.30
14182;DHT22;7171;50.936;6.764;2023-07-13T04:18:00;16.90;86.20
14182;DHT22;7171;50.936;6.764;2023-07-13T04:20:28;16.90;86.40
14182;DHT22;7171;50.936;6.764;2023-07-13T04:22:55;16.90;86.40
14182;DHT22;7171;50.936;6.764;2023-07-13T04:25:23;17.00;86.70
14182;DHT22;7171;50.936;6.764;2023-07-13T04:27:51;16.90;86.50
14182;DHT22;7171;50.936;6.764;2023-07-13T04:30:18;16.90;86.70
14182;DHT22;7171;50.936;6.764;2023-07-13T04:32:44;16.90;87.00
14182;DHT22;7171;50.936;6.764;2023-07-13T04:35:11;16.90;87.00
14182;DHT22;7171;50.936;6.764;2023-07-13T04:37:39;16.90;86.80
14182;DHT22;7171;50.936;6.764;2023-07-13T04:40:07;17.00;87.00
14182;DHT22;7171;50.936;6.764;2023-07-13T04:42:37;16.90;86.90
14182;DHT22;7171;50.936;6.764;2023-07-13T04:45:06;16.90;87.20
14182;DHT22;7171;50.936;6.764;2023-07-13T04:47:33;16.90;87.40
14182;DHT22;7171;50.936;6.764;2023-07-13T04:50:00;16.90;87.60
14182;DHT22;7171;50.936;6.764;2023-07-13T04:52:26;17.00;88.20
14182;DHT22;7171;50.936;6.764;2023-07-13T04:54:53;17.10;88.40
14182;DHT22;7171;50.936;6.764;2023-07-13T04:57:20;17.00;88.60
14182;DHT22;7171;50.936;6.764;2023-07-13T04:59:46;17.10;88.60
14182;DHT22;7171;50.936;6.764;2023-07-13T05:02:14;17.10;88.60
14182;DHT22;7171;50.936;6.764;2023-07-13T05:04:41;17.00;88.70
14182;DHT22;7171;50.936;6.764;2023-07-13T05:07:08;17.20;88.70
14182;DHT22;7171;50.936;6.764;2023-07-13T05:09:35;17.20;89.00
14182;DHT22;7171;50.936;6.764;2023-07-13T05:12:02;17.20;89.10
14182;DHT22;7171;50.936;6.764;2023-07-13T05:14:29;17.30;89.40
14182;DHT22;7171;50.936;6.764;2023-07-13T05:16:55;17.30;89.20
14182;DHT22;7171;50.936;6.764;2023-07-13T05:19:24;17.30;89.40
14182;DHT22;7171;50.936;6.764;2023-07-13T05:21:50;17.20;89.60
14182;DHT22;7171;50.936;6.764;2023-07-13T05:24:17;17.40;90.00
14182;DHT22;7171;50.936;6.764;2023-07-13T05:26:44;17.40;90.00
14182;DHT22;7171;50.936;6.764;2023-07-13T05:29:11;17.50;90.10
14182;DHT22;7171;50.936;6.764;2023-07-13T05:31:37;17.50;90.10
14182;DHT22;7171;50.936;6.764;2023-07-13T05:34:04;17.60;90.30
14182;DHT22;7171;50.936;6.764;2023-07-13T05:36:32;17.60;90.30
14182;DHT22;7171;50.936;6.764;2023-07-13T05:38:59;17.60;90.00
14182;DHT22;7171;50.936;6.764;2023-07-13T05:41:26;17.70;90.40
14182;DHT22;7171;50.936;6.764;2023-07-13T05:43:52;17.80;90.30
14182;DHT22;7171;50.936;6.764;2023-07-13T05:46:19;17.90;90.40
14182;DHT22;7171;50.936;6.764;2023-07-13T05:48:46;17.90;90.50
14182;DHT22;7171;50.936;6.764;2023-07-13T05:51:13;18.00;90.50
14182;DHT22;7171;50.936;6.764;2023-07-13T05:53:41;18.10;90.20
14182;DHT22;7171;50.936;6.764;2023-07-13T05:56:07;18.10;90.50
14182;DHT22;7171;50.936;6.764;2023-07-13T05:58:34;18.20;90.40
14182;DHT22;7171;50.936;6.764;2023-07-13T06:01:02;18.30;90.30
14182;DHT22;7171;50.936;6.764;2023-07-13T06:03:30;18.30;90.00
14182;DHT22;7171;50.936;6.764;2023-07-13T06:05:57;18.30;90.30
14182;DHT22;7171;50.936;6.764;2023-07-13T06:08:25;18.40;90.70
14182;DHT22;7171;50.936;6.764;2023-07-13T06:10:53;18.50;90.90
14182;DHT22;7171;50.936;6.764;2023-07-13T06:13:20;18.50;90.30
14182;DHT22;7171;50.936;6.764;2023-07-13T06:15:48;18.60;90.70
14182;DHT22;7171;50.936;6.764;2023-07-13T06:18:15;18.60;90.80
14182;DHT22;7171;50.936;6.764;2023-07-13T06:20:41;18.60;90.40
14182;DHT22;7171;50.936;6.764;2023-07-13T06:23:08;18.60;90.00
14182;DHT22;7171;50.936;6.764;2023-07-13T06:25:35;18.60;89.70
14182;DHT22;7171;50.936;6.764;2023-07-13T06:28:03;18.60;90.20
14182;DHT22;7171;50.936;6.764;2023-07-13T06:30:30;18.60;90.10
14182;DHT22;7171;50.936;6.764;2023-07-13T06:32:57;18.60;90.40
14182;DHT22;7171;50.936;6.764;2023-07-13T06:35:24;18.50;90.30
14182;DHT22;7171;50.936;6.764;2023-07-13T06:37:50;18.60;90.60
14182;DHT22;7171;50.936;6.764;2023-07-13T06:40:17;18.60;90.90
14182;DHT22;7171;50.936;6.764;2023-07-13T06:42:44;20.00;91.10
14182;DHT22;7171;50.936;6.764;2023-07-13T06:45:12;18.70;90.90
14182;DHT22;7171;50.936;6.764;2023-07-13T06:47:38;18.70;90.60
14182;DHT22;7171;50.936;6.764;2023-07-13T06:50:06;18.80;90.80
14182;DHT22;7171;50.936;6.764;2023-07-13T06:52:33;18.80;90.70
14182;DHT22;7171;50.936;6.764;2023-07-13T06:54:59;18.80;90.90
14182;DHT22;7171;50.936;6.764;2023-07-13T06:57:26;18.80;91.30
14182;DHT22;7171;50.936;6.764;2023-07-13T06:59:53;18.90;91.40
14182;DHT22;7171;50.936;6.764;2023-07-13T07:02:21;19.00;91.20
14182;DHT22;7171;50.936;6.764;2023-07-13T07:04:47;19.00;91.30
14182;DHT22;7171;50.936;6.764;2023-07-13T07:07:15;19.10;91.70
14182;DHT22;7171;50.936;6.764;2023-07-13T07:09:42;19.30;91.80
14182;DHT22;7171;50.936;6.764;2023-07-13T07:12:08;19.30;91.90
14182;DHT22;7171;50.936;6.764;2023-07-13T07:14:35;19.50;91.40
14182;DHT22;7171;50.936;6.764;2023-07-13T07:17:02;19.50;91.30
14182;DHT22;7171;50.936;6.764;2023-07-13T07:19:31;19.60;91.50
14182;DHT22;7171;50.936;6.764;2023-07-13T07:21:57;19.60;91.60
14182;DHT22;7171;50.936;6.764;2023-07-13T07:24:24;19.70;91.60
14182;DHT22;7171;50.936;6.764;2023-07-13T07:26:51;19.80;91.50
14182;DHT22;7171;50.936;6.764;2023-07-13T07:29:17;19.80;91.60
14182;DHT22;7171;50.936;6.764;2023-07-13T07:31:44;19.90;91.90
14182;DHT22;7171;50.936;6.764;2023-07-13T07:34:11;20.00;91.90
14182;DHT22;7171;50.936;6.764;2023-07-13T07:36:39;20.00;91.80
14182;DHT22;7171;50.936;6.764;2023-07-13T07:39:06;20.10;91.90
14182;DHT22;7171;50.936;6.764;2023-07-13T07:41:32;20.10;91.90
14182;DHT22;7171;50.936;6.764;2023-07-13T07:43:59;20.20;91.90
14182;DHT22;7171;50.936;6.764;2023-07-13T07:46:26;20.20;92.00
14182;DHT22;7171;50.936;6.764;2023-07-13T07:48:53;20.20;91.80
14182;DHT22;7171;50.936;6.764;2023-07-13T07:51:20;20.30;92.00
14182;DHT22;7171;50.936;6.764;2023-07-13T07:53:48;20.30;92.00
14182;DHT22;7171;50.936;6.764;2023-07-13T07:56:15;20.30;91.80
14182;DHT22;7171;50.936;6.764;2023-07-13T07:58:42;20.30;91.90
14182;DHT22;7171;50.936;6.764;2023-07-13T08:01:10;20.30;91.90
14182;DHT22;7171;50.936;6.764;2023-07-13T08:03:36;20.30;91.80
14182;DHT22;7171;50.936;6.764;2023-07-13T08:06:03;20.30;92.00
14182;DHT22;7171;50.936;6.764;2023-07-13T08:08:30;20.20;92.00
14182;DHT22;7171;50.936;6.764;2023-07-13T08:10:58;20.20;91.90
14182;DHT22;7171;50.936;6.764;2023-07-13T08:13:28;20.20;91.70
14182;DHT22;7171;50.936;6.764;2023-07-13T08:15:55;20.20;91.80
14182;DHT22;7171;50.936;6.764;2023-07-13T08:18:21;20.20;92.10
14182;DHT22;7171;50.936;6.764;2023-07-13T08:20:48;20.20;92.30
14182;DHT22;7171;50.936;6.764;2023-07-13T08:23:15;20.30;92.20
14182;DHT22;7171;50.936;6.764;2023-07-13T08:25:42;20.30;91.90
14182;DHT22;7171;50.936;6.764;2023-07-13T08:28:10;20.30;92.10
14182;DHT22;7171;50.936;6.764;2023-07-13T08:30:37;20.30;92.10
14182;DHT22;7171;50.936;6.764;2023-07-13T08:33:03;20.30;92.20
14182;DHT22;7171;50.936;6.764;2023-07-13T08:35:31;20.30;92.20
14182;DHT22;7171;50.936;6.764;2023-07-13T08:37:57;20.40;92.30
14182;DHT22;7171;50.936;6.764;2023-07-13T08:40:27;20.40;92.10
14182;DHT22;7171;50.936;6.764;2023-07-13T08:42:54;20.40;91.90
14182;DHT22;7171;50.936;6.764;2023-07-13T08:45:28;20.30;91.90
14182;DHT22;7171;50.936;6.764;2023-07-13T08:48:01;20.40;91.90
14182;DHT22;7171;50.936;6.764;2023-07-13T08:50:32;20.40;91.80
14182;DHT22;7171;50.936;6.764;2023-07-13T08:53:01;20.40;91.80
14182;DHT22;7171;50.936;6.764;2023-07-13T08:55:33;20.30;91.70
14182;DHT22;7171;50.936;6.764;2023-07-13T08:58:09;20.30;91.80
14182;DHT22;7171;50.936;6.764;2023-07-13T09:00:44;20.30;92.00
14182;DHT22;7171;50.936;6.764;2023-07-13T09:03:20;20.40;92.20
14182;DHT22;7171;50.936;6.764;2023-07-13T09:05:52;20.40;92.20
14182;DHT22;7171;50.936;6.764;2023-07-13T09:08:37;20.40;92.20
14182;DHT22;7171;50.936;6.764;2023-07-13T09:11:23;20.50;92.20
14182;DHT22;7171;50.936;6.764;2023-07-13T09:13:58;20.50;92.20
14182;DHT22;7171;50.936;6.764;2023-07-13T09:16:28;20.60;92.20
14182;DHT22;7171;50.936;6.764;2023-07-13T09:19:00;20.60;92.20
14182;DHT22;7171;50.936;6.764;2023-07-13T09:21:31;20.70;92.20
14182;DHT22;7171;50.936;6.764;2023-07-13T09:24:03;20.70;92.30
14182;DHT22;7171;50.936;6.764;2023-07-13T09:26:32;20.80;92.30
14182;DHT22;7171;50.936;6.764;2023-07-13T09:29:06;20.90;92.50
14182;DHT22;7171;50.936;6.764;2023-07-13T09:31:41;20.90;92.50
14182;DHT22;7171;50.936;6.764;2023-07-13T09:34:09;21.00;92.40
14182;DHT22;7171;50.936;6.764;2023-07-13T09:36:36;21.10;92.30
14182;DHT22;7171;50.936;6.764;2023-07-13T09:39:09;21.20;92.30
14182;DHT22;7171;50.936;6.764;2023-07-13T09:41:47;21.20;92.30
14182;DHT22;7171;50.936;6.764;2023-07-13T09:44:18;21.30;92.40
14182;DHT22;7171;50.936;6.764;2023-07-13T09:46:53;21.30;92.40
14182;DHT22;7171;50.936;6.764;2023-07-13T09:49:23;21.40;92.40
14182;DHT22;7171;50.936;6.764;2023-07-13T09:51:57;21.40;92.30
14182;DHT22;7171;50.936;6.764;2023-07-13T09:54:25;21.50;92.40
14182;DHT22;7171;50.936;6.764;2023-07-13T09:56:56;21.60;92.30
14182;DHT22;7171;50.936;6.764;2023-07-13T09:59:24;21.60;92.30
14182;DHT22;7171;50.936;6.764;2023-07-13T10:01:54;21.70;92.60
14182;DHT22;7171;50.936;6.764;2023-07-13T10:04:30;21.80;92.60
14182;DHT22;7171;50.936;6.764;2023-07-13T10:07:05;21.90;92.60
14182;DHT22;7171;50.936;6.764;2023-07-13T10:09:32;22.10;92.60
14182;DHT22;7171;50.936;6.764;2023-07-13T10:11:59;22.20;92.60
14182;DHT22;7171;50.936;6.764;2023-07-13T10:14:28;22.30;92.30
14182;DHT22;7171;50.936;6.764;2023-07-13T10:16:58;22.50;92.50
14182;DHT22;7171;50.936;6.764;2023-07-13T10:19:31;22.60;92.40
14182;DHT22;7171;50.936;6.764;2023-07-13T10:22:02;22.70;92.30
14182;DHT22;7171;50.936;6.764;2023-07-13T10:24:32;22.80;92.20
14182;DHT22;7171;50.936;6.764;2023-07-13T10:27:02;22.90;92.20
14182;DHT22;7171;50.936;6.764;2023-07-13T10:29:35;23.00;92.20
14182;DHT22;7171;50.936;6.764;2023-07-13T10:32:09;23.00;91.90
14182;DHT22;7171;50.936;6.764;2023-07-13T10:34:36;23.00;92.20
14182;DHT22;7171;50.936;6.764;2023-07-13T10:37:03;23.10;92.10
14182;DHT22;7171;50.936;6.764;2023-07-13T10:39:33;23.20;92.00
14182;DHT22;7171;50.936;6.764;2023-07-13T10:42:03;23.20;91.80
14182;DHT22;7171;50.936;6.764;2023-07-13T10:44:32;23.30;91.40
14182;DHT22;7171;50.936;6.764;2023-07-13T10:47:01;23.30;91.70
14182;DHT22;7171;50.936;6.764;2023-07-13T10:49:32;23.30;91.50
14182;DHT22;7171;50.936;6.764;2023-07-13T10:52:00;23.30;91.40
14182;DHT22;7171;50.936;6.764;2023-07-13T10:54:30;23.30;91.10
14182;DHT22;7171;50.936;6.764;2023-07-13T10:57:17;23.30;91.00
14182;DHT22;7171;50.936;6.764;2023-07-13T10:59:47;23.20;91.10
14182;DHT22;7171;50.936;6.764;2023-07-13T11:02:22;23.20;91.00
14182;DHT22;7171;50.936;6.764;2023-07-13T11:04:53;23.10;91.00
14182;DHT22;7171;50.936;6.764;2023-07-13T11:07:22;23.10;91.00
14182;DHT22;7171;50.936;6.764;2023-07-13T11:09:51;23.10;91.10
14182;DHT22;7171;50.936;6.764;2023-07-13T11:15:12;23.20;91.30
14182;DHT22;7171;50.936;6.764;2023-07-13T11:17:50;23.20;91.40
14182;DHT22;7171;50.936;6.764;2023-07-13T11:20:37;23.20;91.30
14182;DHT22;7171;50.936;6.764;2023-07-13T11:23:16;23.20;91.10
14182;DHT22;7171;50.936;6.764;2023-07-13T11:25:44;23.20;91.10
14182;DHT22;7171;50.936;6.764;2023-07-13T11:28:17;23.10;90.80
14182;DHT22;7171;50.936;6.764;2023-07-13T11:30:47;23.10;90.90
14182;DHT22;7171;50.936;6.764;2023-07-13T11:33:17;23.10;90.80
14182;DHT22;7171;50.936;6.764;2023-07-13T11:35:51;23.00;90.80
14182;DHT22;7171;50.936;6.764;2023-07-13T11:38:20;23.00;90.60
14182;DHT22;7171;50.936;6.764;2023-07-13T11:40:50;23.00;90.40
14182;DHT22;7171;50.936;6.764;2023-07-13T11:43:18;23.00;90.60
14182;DHT22;7171;50.936;6.764;2023-07-13T11:45:45;23.00;90.80
14182;DHT22;7171;50.936;6.764;2023-07-13T11:48:23;23.00;90.80
14182;DHT22;7171;50.936;6.764;2023-07-13T11:50:54;23.10;91.00
14182;DHT22;7171;50.936;6.764;2023-07-13T11:53:22;23.10;90.90
14182;DHT22;7171;50.936;6.764;2023-07-13T11:55:50;23.10;90.80
14182;DHT22;7171;50.936;6.764;2023-07-13T11:58:21;23.10;90.80
14182;DHT22;7171;50.936;6.764;2023-07-13T12:00:49;23.10;90.80
14182;DHT22;7171;50.936;6.764;2023-07-13T12:03:20;23.10;90.90
14182;DHT22;7171;50.936;6.764;2023-07-13T12:05:58;23.10;90.60
14182;DHT22;7171;50.936;6.764;2023-07-13T12:08:26;23.10;90.60
14182;DHT22;7171;50.936;6.764;2023-07-13T12:11:00;23.10;90.60
14182;DHT22;7171;50.936;6.764;2023-07-13T12:13:35;23.10;90.40
14182;DHT22;7171;50.936;6.764;2023-07-13T12:16:11;23.10;90.60
14182;DHT22;7171;50.936;6.764;2023-07-13T12:18:38;23.10;90.80
14182;DHT22;7171;50.936;6.764;2023-07-13T12:21:14;23.10;90.90
14182;DHT22;7171;50.936;6.764;2023-07-13T12:23:44;23.20;91.20
14182;DHT22;7171;50.936;6.764;2023-07-13T12:26:11;23.40;90.90
14182;DHT22;7171;50.936;6.764;2023-07-13T12:28:43;23.50;90.80
14182;DHT22;7171;50.936;6.764;2023-07-13T12:31:24;23.60;90.70
14182;DHT22;7171;50.936;6.764;2023-07-13T12:33:57;23.60;90.50
14182;DHT22;7171;50.936;6.764;2023-07-13T12:36:26;23.70;90.60
14182;DHT22;7171;50.936;6.764;2023-07-13T12:38:54;23.90;90.80
14182;DHT22;7171;50.936;6.764;2023-07-13T12:41:22;24.00;90.90
14182;DHT22;7171;50.936;6.764;2023-07-13T12:43:49;24.10;90.80
14182;DHT22;7171;50.936;6.764;2023-07-13T12:46:18;24.20;90.80
14182;DHT22;7171;50.936;6.764;2023-07-13T12:48:48;24.30;90.70
14182;DHT22;7171;50.936;6.764;2023-07-13T12:51:16;24.40;90.60
14182;DHT22;7171;50.936;6.764;2023-07-13T12:53:48;24.60;91.40
14182;DHT22;7171;50.936;6.764;2023-07-13T12:56:21;24.60;90.70
14182;DHT22;7171;50.936;6.764;2023-07-13T12:58:50;24.70;90.40
14182;DHT22;7171;50.936;6.764;2023-07-13T13:01:21;24.70;90.40
14182;DHT22;7171;50.936;6.764;2023-07-13T13:03:51;24.80;90.10
14182;DHT22;7171;50.936;6.764;2023-07-13T13:06:23;24.80;90.30
14182;DHT22;7171;50.936;6.764;2023-07-13T13:08:53;24.80;90.40
14182;DHT22;7171;50.936;6.764;2023-07-13T13:11:22;24.90;89.90
14182;DHT22;7171;50.936;6.764;2023-07-13T13:13:50;25.00;89.80
14182;DHT22;7171;50.936;6.764;2023-07-13T13:16:20;25.10;90.10
14182;DHT22;7171;50.936;6.764;2023-07-13T13:18:48;25.10;90.20
14182;DHT22;7171;50.936;6.764;2023-07-13T13:21:15;25.10;89.30
14182;DHT22;7171;50.936;6.764;2023-07-13T13:23:42;25.10;89.10
14182;DHT22;7171;50.936;6.764;2023-07-13T13:26:13;25.10;90.00
14182;DHT22;7171;50.936;6.764;2023-07-13T13:28:41;25.10;89.20
14182;DHT22;7171;50.936;6.764;2023-07-13T13:31:08;25.20;88.80
14182;DHT22;7171;50.936;6.764;2023-07-13T13:33:38;25.20;88.70
14182;DHT22;7171;50.936;6.764;2023-07-13T13:36:13;25.20;87.90
14182;DHT22;7171;50.936;6.764;2023-07-13T13:38:41;25.10;86.80
14182;DHT22;7171;50.936;6.764;2023-07-13T13:41:09;25.00;87.40
14182;DHT22;7171;50.936;6.764;2023-07-13T13:43:37;25.10;88.20
14182;DHT22;7171;50.936;6.764;2023-07-13T13:46:14;25.00;87.60
14182;DHT22;7171;50.936;6.764;2023-07-13T13:48:41;25.00;87.70
14182;DHT22;7171;50.936;6.764;2023-07-13T13:51:14;25.00;88.20
14182;DHT22;7171;50.936;6.764;2023-07-13T13:53:41;25.00;87.50
14182;DHT22;7171;50.936;6.764;2023-07-13T13:56:09;24.90;88.00
14182;DHT22;7171;50.936;6.764;2023-07-13T13:58:37;24.80;87.10
14182;DHT22;7171;50.936;6.764;2023-07-13T14:01:04;24.70;86.20
14182;DHT22;7171;50.936;6.764;2023-07-13T14:03:34;24.70;86.00
14182;DHT22;7171;50.936;6.764;2023-07-13T14:06:01;24.60;86.40
14182;DHT22;7171;50.936;6.764;2023-07-13T14:08:28;24.60;86.40
14182;DHT22;7171;50.936;6.764;2023-07-13T14:10:56;24.60;86.50
14182;DHT22;7171;50.936;6.764;2023-07-13T14:13:27;24.70;87.40
14182;DHT22;7171;50.936;6.764;2023-07-13T14:15:55;24.80;86.50
14182;DHT22;7171;50.936;6.764;2023-07-13T14:18:22;24.80;86.90
14182;DHT22;7171;50.936;6.764;2023-07-13T14:20:49;24.80;86.70
14182;DHT22;7171;50.936;6.764;2023-07-13T14:23:18;24.80;86.20
14182;DHT22;7171;50.936;6.764;2023-07-13T14:25:45;24.90;86.60
14182;DHT22;7171;50.936;6.764;2023-07-13T14:28:23;25.00;86.90
14182;DHT22;7171;50.936;6.764;2023-07-13T14:30:50;25.10;86.50
14182;DHT22;7171;50.936;6.764;2023-07-13T14:33:18;25.10;86.00
14182;DHT22;7171;50.936;6.764;2023-07-13T14:35:45;25.20;85.80
14182;DHT22;7171;50.936;6.764;2023-07-13T14:38:15;25.20;85.70
14182;DHT22;7171;50.936;6.764;2023-07-13T14:40:42;25.20;85.50
14182;DHT22;7171;50.936;6.764;2023-07-13T14:43:13;25.20;85.50
14182;DHT22;7171;50.936;6.764;2023-07-13T14:45:41;25.20;85.90
14182;DHT22;7171;50.936;6.764;2023-07-13T14:48:14;25.20;85.90
14182;DHT22;7171;50.936;6.764;2023-07-13T14:50:43;25.40;86.80
14182;DHT22;7171;50.936;6.764;2023-07-13T14:53:12;25.40;85.90
14182;DHT22;7171;50.936;6.764;2023-07-13T14:55:39;25.50;85.10
14182;DHT22;7171;50.936;6.764;2023-07-13T14:58:08;25.60;85.10
14182;DHT22;7171;50.936;6.764;2023-07-13T15:00:35;25.60;84.80
14182;DHT22;7171;50.936;6.764;2023-07-13T15:03:03;25.60;84.70
14182;DHT22;7171;50.936;6.764;2023-07-13T15:05:32;25.70;85.30
14182;DHT22;7171;50.936;6.764;2023-07-13T15:08:02;25.80;85.50
14182;DHT22;7171;50.936;6.764;2023-07-13T15:10:30;25.80;85.50
14182;DHT22;7171;50.936;6.764;2023-07-13T15:12:59;25.70;84.80
14182;DHT22;7171;50.936;6.764;2023-07-13T15:15:28;25.60;84.10
14182;DHT22;7171;50.936;6.764;2023-07-13T15:17:55;25.40;83.50
14182;DHT22;7171;50.936;6.764;2023-07-13T15:20:25;25.30;83.00
14182;DHT22;7171;50.936;6.764;2023-07-13T15:22:52;25.20;83.10
14182;DHT22;7171;50.936;6.764;2023-07-13T15:25:23;25.10;82.90
14182;DHT22;7171;50.936;6.764;2023-07-13T15:27:49;25.00;82.80
14182;DHT22;7171;50.936;6.764;2023-07-13T15:30:17;24.80;82.80
14182;DHT22;7171;50.936;6.764;2023-07-13T15:32:44;24.70;82.80
14182;DHT22;7171;50.936;6.764;2023-07-13T15:35:15;24.70;82.60
14182;DHT22;7171;50.936;6.764;2023-07-13T15:37:43;24.50;82.40
14182;DHT22;7171;50.936;6.764;2023-07-13T15:40:10;24.50;82.50
14182;DHT22;7171;50.936;6.764;2023-07-13T15:42:39;24.40;82.40
14182;DHT22;7171;50.936;6.764;2023-07-13T15:45:25;24.30;82.50
14182;DHT22;7171;50.936;6.764;2023-07-13T15:47:52;24.20;82.70
14182;DHT22;7171;50.936;6.764;2023-07-13T15:50:20;24.10;82.90
14182;DHT22;7171;50.936;6.764;2023-07-13T15:52:52;24.00;83.10
14182;DHT22;7171;50.936;6.764;2023-07-13T15:55:19;23.90;83.40
14182;DHT22;7171;50.936;6.764;2023-07-13T15:57:49;23.80;83.90